createdAt,value
2019-02-03T00:02:13.726Z,30.53
2019-02-03T00:04:43.370Z,31.07
2019-02-03T00:07:12.919Z,30.57
2019-02-03T00:09:42.442Z,29.23
2019-02-03T00:12:12.026Z,30.03
2019-02-03T00:14:41.951Z,36.67
2019-02-03T00:17:11.509Z,31.13
2019-02-03T00:19:41.219Z,35.17
2019-02-03T00:22:10.794Z,37.27
2019-02-03T00:24:40.322Z,35.07
2019-02-03T00:27:09.933Z,31.37
2019-02-03T00:29:39.794Z,33.70
2019-02-03T00:32:09.336Z,41.43
2019-02-03T00:34:38.910Z,33.37
2019-02-03T00:37:16.777Z,34.37
2019-02-03T00:39:39.774Z,35.60
2019-02-03T00:42:09.396Z,35.30
2019-02-03T00:44:38.942Z,35.80
2019-02-03T00:47:08.491Z,35.27
2019-02-03T00:49:38.239Z,31.80
2019-02-03T00:52:07.862Z,38.90
2019-02-03T00:54:37.436Z,37.87
2019-02-03T00:57:07.173Z,40.30
2019-02-03T00:59:36.722Z,40.90
2019-02-03T01:02:06.804Z,45.00
2019-02-03T01:04:36.384Z,45.83
2019-02-03T01:07:06.899Z,40.47
2019-02-03T01:09:36.450Z,42.90
2019-02-03T01:12:06.472Z,40.43
2019-02-03T01:14:36.009Z,41.97
2019-02-03T01:17:05.869Z,45.30
2019-02-03T01:19:36.301Z,47.10
2019-02-03T01:22:06.025Z,42.23
2019-02-03T01:24:35.588Z,43.00
2019-02-03T01:27:05.370Z,47.60
2019-02-03T01:29:34.920Z,54.57
2019-02-03T01:32:04.540Z,49.83
2019-02-03T01:34:34.081Z,56.53
2019-02-03T01:37:03.616Z,49.23
2019-02-03T01:39:33.231Z,55.67
2019-02-03T01:42:02.923Z,59.33
2019-02-03T01:44:32.460Z,59.77
2019-02-03T01:47:02.363Z,57.67
2019-02-03T01:49:31.934Z,56.13
2019-02-03T01:52:01.482Z,77.43
2019-02-03T01:54:31.049Z,68.00
2019-02-03T01:57:01.153Z,79.60
2019-02-03T01:59:31.058Z,72.53
2019-02-03T02:02:00.593Z,84.80
2019-02-03T02:04:30.254Z,77.33
2019-02-03T02:06:59.864Z,83.10
2019-02-03T02:09:29.407Z,85.63
2019-02-03T02:11:58.993Z,78.73
2019-02-03T02:14:28.522Z,92.43
2019-02-03T02:16:58.058Z,93.00
2019-02-03T02:19:28.077Z,89.20
2019-02-03T02:21:57.631Z,82.70
2019-02-03T02:24:27.216Z,90.57
2019-02-03T02:26:57.233Z,99.37
2019-02-03T02:29:26.777Z,84.83
2019-02-03T02:31:56.315Z,93.87
2019-02-03T02:34:25.886Z,89.40
2019-02-03T02:36:55.417Z,87.60
2019-02-03T02:39:24.998Z,96.07
2019-02-03T02:41:54.562Z,92.27
2019-02-03T02:44:24.108Z,105.83
2019-02-03T02:46:53.655Z,94.57
2019-02-03T02:49:23.619Z,84.93
2019-02-03T02:51:53.152Z,92.07
2019-02-03T02:54:22.964Z,91.43
2019-02-03T02:56:52.550Z,89.90
2019-02-03T02:59:22.104Z,92.63
2019-02-03T03:01:51.642Z,95.30
2019-02-03T03:04:22.023Z,94.90
2019-02-03T03:06:51.553Z,86.60
2019-02-03T03:09:21.103Z,91.03
2019-02-03T03:11:50.952Z,96.37
2019-02-03T03:14:20.523Z,87.93
2019-02-03T03:16:50.200Z,90.47
2019-02-03T03:19:20.003Z,93.53
2019-02-03T03:21:49.557Z,97.03
2019-02-03T03:24:19.118Z,95.17
2019-02-03T03:26:48.699Z,82.30
2019-02-03T03:29:18.250Z,95.87
2019-02-03T03:31:47.797Z,89.83
2019-02-03T03:34:17.830Z,85.30
2019-02-03T03:36:47.370Z,86.93
2019-02-03T03:39:16.957Z,93.90
2019-02-03T03:41:46.636Z,91.97
2019-02-03T03:44:16.193Z,76.50
2019-02-03T03:46:45.746Z,79.90
2019-02-03T03:49:15.311Z,70.10
2019-02-03T03:51:44.930Z,72.93
2019-02-03T03:54:14.616Z,79.33
2019-02-03T03:56:44.175Z,74.70
2019-02-03T03:59:13.788Z,74.63
2019-02-03T04:01:43.852Z,81.50
2019-02-03T04:04:16.448Z,81.13
2019-02-03T04:06:44.680Z,71.57
2019-02-03T04:09:14.218Z,89.43
2019-02-03T04:11:43.851Z,79.60
2019-02-03T04:14:13.743Z,74.90
2019-02-03T04:16:43.305Z,84.17
2019-02-03T04:19:12.919Z,73.57
2019-02-03T04:21:42.500Z,76.70
2019-02-03T04:24:12.036Z,94.27
2019-02-03T04:26:42.006Z,69.80
2019-02-03T04:29:12.285Z,77.03
2019-02-03T04:31:42.076Z,82.17
2019-02-03T04:34:11.834Z,87.83
2019-02-03T04:36:41.400Z,70.70
2019-02-03T04:39:11.088Z,69.97
2019-02-03T04:41:41.175Z,87.90
2019-02-03T04:44:10.887Z,64.80
2019-02-03T04:46:40.434Z,69.73
2019-02-03T04:49:10.084Z,69.37
2019-02-03T04:51:39.636Z,60.70
2019-02-03T04:54:09.273Z,66.73
2019-02-03T04:56:38.909Z,71.03
2019-02-03T04:59:08.465Z,69.47
2019-02-03T05:01:38.020Z,63.77
2019-02-03T05:04:07.970Z,70.07
2019-02-03T05:06:37.525Z,57.93
2019-02-03T05:09:11.238Z,64.87
2019-02-03T05:11:39.680Z,64.17
2019-02-03T05:14:09.404Z,70.43
2019-02-03T05:16:39.043Z,83.13
2019-02-03T05:19:08.624Z,64.67
2019-02-03T05:21:38.452Z,57.67
2019-02-03T05:24:08.154Z,76.00
2019-02-03T05:26:37.840Z,68.57
2019-02-03T05:29:07.455Z,77.73
2019-02-03T05:31:36.995Z,75.57
2019-02-03T05:34:06.858Z,80.20
2019-02-03T05:36:36.387Z,77.83
2019-02-03T05:39:07.992Z,83.73
2019-02-03T05:41:37.634Z,77.07
2019-02-03T05:44:07.345Z,88.60
2019-02-03T05:46:36.911Z,88.10
2019-02-03T05:49:06.866Z,85.00
2019-02-03T05:51:36.425Z,85.77
2019-02-03T05:54:06.223Z,75.27
2019-02-03T05:56:35.808Z,86.67
2019-02-03T05:59:05.504Z,81.23
2019-02-03T06:01:35.513Z,88.30
2019-02-03T06:04:05.592Z,82.20
2019-02-03T06:06:35.149Z,81.40
2019-02-03T06:09:07.562Z,81.30
2019-02-03T06:11:37.131Z,76.30
2019-02-03T06:14:07.187Z,74.17
2019-02-03T06:16:36.742Z,82.90
2019-02-03T06:19:06.504Z,82.73
2019-02-03T06:21:36.044Z,78.53
2019-02-03T06:24:05.961Z,73.60
2019-02-03T06:26:35.553Z,71.50
2019-02-03T06:29:05.181Z,77.50
2019-02-03T06:31:34.748Z,68.90
2019-02-03T06:34:05.936Z,75.13
2019-02-03T06:36:35.489Z,80.87
2019-02-03T06:39:08.141Z,75.90
2019-02-03T06:41:37.718Z,78.93
2019-02-03T06:44:07.352Z,77.20
2019-02-03T06:46:38.561Z,76.23
2019-02-03T06:49:09.777Z,71.03
2019-02-03T06:51:39.331Z,90.17
2019-02-03T06:54:08.904Z,86.47
2019-02-03T06:56:38.555Z,86.03
2019-02-03T06:59:08.204Z,78.63
2019-02-03T07:01:37.748Z,96.13
2019-02-03T07:04:08.020Z,93.37
2019-02-03T07:06:37.827Z,82.43
2019-02-03T07:09:09.306Z,95.43
2019-02-03T07:11:39.048Z,97.77
2019-02-03T07:14:08.735Z,99.93
2019-02-03T07:16:41.051Z,102.10
2019-02-03T07:19:10.030Z,99.97
2019-02-03T07:21:39.675Z,102.07
2019-02-03T07:24:10.980Z,102.53
2019-02-03T07:26:41.000Z,110.33
2019-02-03T07:29:10.556Z,114.43
2019-02-03T07:31:40.112Z,87.20
2019-02-03T07:34:09.740Z,122.10
2019-02-03T07:36:39.280Z,100.57
2019-02-03T07:39:09.165Z,88.10
2019-02-03T07:41:38.850Z,87.23
2019-02-03T07:44:08.468Z,80.30
2019-02-03T07:46:38.390Z,91.17
2019-02-03T07:49:08.190Z,88.17
2019-02-03T07:51:37.730Z,82.60
2019-02-03T07:54:08.738Z,80.63
2019-02-03T07:56:38.958Z,90.97
2019-02-03T07:59:08.972Z,86.90
2019-02-03T08:01:38.528Z,77.67
2019-02-03T08:04:08.243Z,94.27
2019-02-03T08:06:37.787Z,84.20
2019-02-03T08:09:09.183Z,78.90
2019-02-03T08:11:38.750Z,77.93
2019-02-03T08:14:08.736Z,72.47
2019-02-03T08:16:38.278Z,87.77
2019-02-03T08:19:07.919Z,82.97
2019-02-03T08:21:37.457Z,73.23
2019-02-03T08:24:07.082Z,76.87
2019-02-03T08:26:37.533Z,86.90
2019-02-03T08:29:07.132Z,83.73
2019-02-03T08:31:36.750Z,83.90
2019-02-03T08:34:06.399Z,81.17
2019-02-03T08:36:35.949Z,85.27
2019-02-03T08:39:08.127Z,79.80
2019-02-03T08:41:37.746Z,98.63
2019-02-03T08:44:07.292Z,94.27
2019-02-03T08:46:36.848Z,85.57
2019-02-03T08:49:06.578Z,86.40
2019-02-03T08:51:36.197Z,82.13
2019-02-03T08:54:06.367Z,93.37
2019-02-03T08:56:35.942Z,97.23
2019-02-03T08:59:05.890Z,84.93
2019-02-03T09:01:35.414Z,86.07
2019-02-03T09:04:05.213Z,99.13
2019-02-03T09:06:34.733Z,79.87
2019-02-03T09:09:07.453Z,91.77
2019-02-03T09:11:36.991Z,127.57
2019-02-03T09:14:06.506Z,90.03
2019-02-03T09:16:36.019Z,95.10
2019-02-03T09:19:06.013Z,171.67
2019-02-03T09:21:35.527Z,79.80
2019-02-03T09:24:05.285Z,82.30
2019-02-03T09:26:34.843Z,84.47
2019-02-03T09:29:04.536Z,95.60
2019-02-03T09:31:34.068Z,84.97
2019-02-03T09:34:04.267Z,73.90
2019-02-03T09:36:33.863Z,82.07
2019-02-03T09:39:04.526Z,80.50
2019-02-03T09:41:34.074Z,86.80
2019-02-03T09:44:03.657Z,97.27
2019-02-03T09:46:33.185Z,73.50
2019-02-03T09:49:02.741Z,85.73
2019-02-03T09:51:32.269Z,75.83
2019-02-03T09:54:01.793Z,65.57
2019-02-03T09:56:31.369Z,71.23
2019-02-03T09:59:00.893Z,61.23
2019-02-03T10:01:30.807Z,68.40
2019-02-03T10:04:00.368Z,68.67
2019-02-03T10:06:29.879Z,65.50
2019-02-03T10:08:59.492Z,57.27
2019-02-03T10:11:29.102Z,70.00
2019-02-03T10:13:58.691Z,70.70
2019-02-03T10:16:28.197Z,83.50
2019-02-03T10:18:58.233Z,65.20
2019-02-03T10:21:27.746Z,77.63
2019-02-03T10:23:57.610Z,85.50
2019-02-03T10:26:27.243Z,93.37
2019-02-03T10:28:57.140Z,97.83
2019-02-03T10:31:26.733Z,83.93
2019-02-03T10:33:56.288Z,73.90
2019-02-03T10:36:25.903Z,58.37
2019-02-03T10:38:55.627Z,68.23
2019-02-03T10:41:25.160Z,59.13
2019-02-03T10:43:56.439Z,66.63
2019-02-03T10:46:26.129Z,67.77
2019-02-03T10:48:55.660Z,69.80
2019-02-03T10:51:25.188Z,60.70
2019-02-03T10:53:54.674Z,62.67
2019-02-03T10:56:24.218Z,59.70
2019-02-03T10:59:13.087Z,69.27
2019-02-03T11:01:42.602Z,83.13
2019-02-03T11:04:12.260Z,66.87
2019-02-03T11:06:41.854Z,57.70
2019-02-03T11:09:11.707Z,53.23
2019-02-03T11:11:41.215Z,66.43
2019-02-03T11:14:10.992Z,61.20
2019-02-03T11:16:40.613Z,98.90
2019-02-03T11:19:10.198Z,80.50
2019-02-03T11:21:39.723Z,74.53
2019-02-03T11:24:09.382Z,83.70
2019-02-03T11:26:38.894Z,55.10
2019-02-03T11:29:08.470Z,54.27
2019-02-03T11:31:38.607Z,62.53
2019-02-03T11:34:08.179Z,53.73
2019-02-03T11:36:37.756Z,53.07
2019-02-03T11:39:08.615Z,53.83
2019-02-03T11:41:48.799Z,56.07
2019-02-03T11:44:09.611Z,58.67
2019-02-03T11:46:39.150Z,44.20
2019-02-03T11:49:08.682Z,55.77
2019-02-03T11:51:38.788Z,51.30
2019-02-03T11:54:09.123Z,48.67
2019-02-03T11:56:38.712Z,39.90
2019-02-03T11:59:08.334Z,54.83
2019-02-03T12:01:37.834Z,37.50
2019-02-03T12:04:07.347Z,47.93
2019-02-03T12:06:36.947Z,47.10
2019-02-03T12:09:08.643Z,48.73
2019-02-03T12:11:38.167Z,45.73
2019-02-03T12:14:07.690Z,45.27
2019-02-03T12:16:37.242Z,45.97
2019-02-03T12:19:06.864Z,45.77
2019-02-03T12:21:36.385Z,41.20
2019-02-03T12:24:06.330Z,41.65
2019-02-03T12:26:36.473Z,48.43
2019-02-03T12:29:06.509Z,45.63
2019-02-03T12:31:36.412Z,37.80
2019-02-03T12:34:06.296Z,40.60
2019-02-03T12:36:35.899Z,45.30
2019-02-03T12:39:08.427Z,43.97
2019-02-03T12:41:37.941Z,40.60
2019-02-03T12:44:07.462Z,41.17
2019-02-03T12:46:38.963Z,38.20
2019-02-03T12:49:08.245Z,44.03
2019-02-03T12:51:39.935Z,44.00
2019-02-03T12:54:09.002Z,48.70
2019-02-03T12:56:38.783Z,41.23
2019-02-03T12:59:08.535Z,43.30
2019-02-03T13:01:38.269Z,45.23
2019-02-03T13:04:07.784Z,34.47
2019-02-03T13:06:37.296Z,38.77
2019-02-03T13:09:09.606Z,42.70
2019-02-03T13:11:39.192Z,45.77
2019-02-03T13:14:08.816Z,44.90
2019-02-03T13:16:38.390Z,52.13
2019-02-03T13:19:08.495Z,44.77
2019-02-03T13:21:38.057Z,41.90
2019-02-03T13:24:07.742Z,42.40
2019-02-03T13:26:37.281Z,42.40
2019-02-03T13:29:06.783Z,48.53
2019-02-03T13:31:36.380Z,37.47
2019-02-03T13:34:06.013Z,41.83
2019-02-03T13:36:35.904Z,36.90
2019-02-03T13:39:08.202Z,41.03
2019-02-03T13:41:37.712Z,40.70
2019-02-03T13:44:07.293Z,37.13
2019-02-03T13:46:36.836Z,32.70
2019-02-03T13:49:06.765Z,37.93
2019-02-03T13:51:36.352Z,28.10
2019-02-03T13:54:06.315Z,30.97
2019-02-03T13:56:35.995Z,39.63
2019-02-03T13:59:05.579Z,42.77
2019-02-03T14:01:35.417Z,34.13
2019-02-03T14:04:05.345Z,27.87
2019-02-03T14:06:34.870Z,26.30
2019-02-03T14:09:07.822Z,27.33
2019-02-03T14:11:37.333Z,31.47
2019-02-03T14:14:07.242Z,26.60
2019-02-03T14:16:36.778Z,27.03
2019-02-03T14:19:06.304Z,30.53
2019-02-03T14:21:36.251Z,26.57
2019-02-03T14:24:05.837Z,21.97
2019-02-03T14:26:35.423Z,28.13
2019-02-03T14:29:05.016Z,22.70
2019-02-03T14:31:34.532Z,21.60
2019-02-03T14:34:05.631Z,21.50
2019-02-03T14:36:35.144Z,23.10
2019-02-03T14:39:07.219Z,23.40
2019-02-03T14:41:36.768Z,29.67
2019-02-03T14:44:06.684Z,23.53
2019-02-03T14:46:36.205Z,26.90
2019-02-03T14:49:05.825Z,25.07
2019-02-03T14:51:35.332Z,23.50
2019-02-03T14:54:05.244Z,20.40
2019-02-03T14:56:34.769Z,23.70
2019-02-03T14:59:04.578Z,26.87
2019-02-03T15:01:34.125Z,18.90
2019-02-03T15:04:06.884Z,23.67
2019-02-03T15:06:35.026Z,33.23
2019-02-03T15:09:07.569Z,18.00
2019-02-03T15:11:37.556Z,24.07
2019-02-03T15:14:07.215Z,22.97
2019-02-03T15:16:36.742Z,19.30
2019-02-03T15:19:06.715Z,22.13
2019-02-03T15:21:36.228Z,17.23
2019-02-03T15:24:15.982Z,25.43
2019-02-03T15:26:37.281Z,24.30
2019-02-03T15:29:06.942Z,21.80
2019-02-03T15:31:36.545Z,24.30
2019-02-03T15:34:06.295Z,21.60
2019-02-03T15:36:35.857Z,22.10
2019-02-03T15:39:07.884Z,23.07
2019-02-03T15:41:37.416Z,23.67
2019-02-03T15:44:07.289Z,25.90
2019-02-03T15:46:36.819Z,19.87
2019-02-03T15:49:06.434Z,25.47
2019-02-03T15:51:35.954Z,19.27
2019-02-03T15:54:06.410Z,18.77
2019-02-03T15:56:35.944Z,19.13
2019-02-03T15:59:05.628Z,17.00
2019-02-03T16:01:35.152Z,20.50
2019-02-03T16:04:04.831Z,22.20
2019-02-03T16:06:34.538Z,22.17
2019-02-03T16:09:05.130Z,22.23
2019-02-03T16:11:35.147Z,18.40
2019-02-03T16:14:04.804Z,23.97
2019-02-03T16:16:34.310Z,20.87
2019-02-03T16:19:04.111Z,24.27
2019-02-03T16:21:33.622Z,25.23
2019-02-03T16:24:03.127Z,20.40
2019-02-03T16:26:32.744Z,22.57
2019-02-03T16:29:02.760Z,26.27
2019-02-03T16:31:32.386Z,22.13
2019-02-03T16:34:01.900Z,21.20
2019-02-03T16:36:31.429Z,20.70
2019-02-03T16:39:00.949Z,19.53
2019-02-03T16:41:30.470Z,24.47
2019-02-03T16:43:59.998Z,24.30
2019-02-03T16:46:29.513Z,19.70
2019-02-03T16:48:59.398Z,25.80
2019-02-03T16:51:28.950Z,17.70
2019-02-03T16:53:58.431Z,18.13
2019-02-03T16:56:28.220Z,19.20
2019-02-03T16:58:57.730Z,17.23
2019-02-03T17:01:56.425Z,22.13
2019-02-03T17:04:25.955Z,17.90
2019-02-03T17:06:55.466Z,16.87
2019-02-03T17:09:25.023Z,18.67
2019-02-03T17:11:54.639Z,17.17
2019-02-03T17:14:24.420Z,24.20
2019-02-03T17:16:53.927Z,19.97
2019-02-03T17:19:23.520Z,18.90
2019-02-03T17:21:53.062Z,24.90
2019-02-03T17:24:22.564Z,27.47
2019-02-03T17:26:54.362Z,19.17
2019-02-03T17:29:23.446Z,17.57
2019-02-03T17:31:53.023Z,25.93
2019-02-03T17:34:22.561Z,20.00
2019-02-03T17:36:52.911Z,24.03
2019-02-03T17:39:22.570Z,23.07
2019-02-03T17:41:52.069Z,25.67
2019-02-03T17:44:21.663Z,21.63
2019-02-03T17:46:51.215Z,25.33
2019-02-03T17:49:20.811Z,28.03
2019-02-03T17:51:50.355Z,32.33
2019-02-03T17:54:19.862Z,25.80
2019-02-03T17:56:49.751Z,23.63
2019-02-03T17:59:19.287Z,27.17
2019-02-03T18:01:48.798Z,33.10
2019-02-03T18:04:18.621Z,25.03
2019-02-03T18:06:48.144Z,19.47
2019-02-03T18:09:17.656Z,26.70
2019-02-03T18:11:47.189Z,23.73
2019-02-03T18:14:24.191Z,20.50
2019-02-03T18:16:48.007Z,22.40
2019-02-03T18:19:18.553Z,43.57
2019-02-03T18:21:48.158Z,27.33
2019-02-03T18:24:18.017Z,27.80
2019-02-03T18:26:47.560Z,29.13
2019-02-03T18:29:17.153Z,25.90
2019-02-03T18:31:46.684Z,25.30
2019-02-03T18:34:16.208Z,27.77
2019-02-03T18:36:45.744Z,26.03
2019-02-03T18:39:15.931Z,20.57
2019-02-03T18:41:45.651Z,23.00
2019-02-03T18:44:15.179Z,20.20
2019-02-03T18:46:44.863Z,23.90
2019-02-03T18:49:14.393Z,24.60
2019-02-03T18:51:44.195Z,23.50
2019-02-03T18:54:13.737Z,24.83
2019-02-03T18:56:43.244Z,22.47
2019-02-03T18:59:13.098Z,22.50
2019-02-03T19:01:42.629Z,23.73
2019-02-03T19:04:12.208Z,24.07
2019-02-03T19:06:41.750Z,17.23
2019-02-03T19:09:11.503Z,16.47
2019-02-03T19:11:41.712Z,19.33
2019-02-03T19:14:11.353Z,20.27
2019-02-03T19:16:40.961Z,19.03
2019-02-03T19:19:10.674Z,18.13
2019-02-03T19:21:42.054Z,18.30
2019-02-03T19:24:11.595Z,20.03
2019-02-03T19:26:41.108Z,24.73
2019-02-03T19:29:11.471Z,14.90
2019-02-03T19:31:41.276Z,13.73
2019-02-03T19:34:10.783Z,20.77
2019-02-03T19:36:40.330Z,20.63
2019-02-03T19:39:10.581Z,17.20
2019-02-03T19:41:40.326Z,18.90
2019-02-03T19:44:09.834Z,16.40
2019-02-03T19:46:39.349Z,23.20
2019-02-03T19:49:08.896Z,17.40
2019-02-03T19:51:38.434Z,18.87
2019-02-03T19:54:08.029Z,16.53
2019-02-03T19:56:37.557Z,18.77
2019-02-03T19:59:07.382Z,16.90
2019-02-03T20:01:36.864Z,15.13
2019-02-03T20:04:06.461Z,23.17
2019-02-03T20:06:36.322Z,20.23
2019-02-03T20:09:08.056Z,16.73
2019-02-03T20:11:37.700Z,20.30
2019-02-03T20:14:07.458Z,16.07
2019-02-03T20:16:36.966Z,16.93
2019-02-03T20:19:06.515Z,13.80
2019-02-03T20:21:37.645Z,21.23
2019-02-03T20:24:07.171Z,13.90
2019-02-03T20:26:37.158Z,14.87
2019-02-03T20:29:06.836Z,10.30
2019-02-03T20:31:36.465Z,10.20
2019-02-03T20:34:05.976Z,13.93
2019-02-03T20:36:35.585Z,12.50
2019-02-03T20:39:07.590Z,12.83
2019-02-03T20:41:37.101Z,15.47
2019-02-03T20:44:06.917Z,8.77
2019-02-03T20:46:36.395Z,7.90
2019-02-03T20:49:06.481Z,8.10
2019-02-03T20:51:36.000Z,13.60
2019-02-03T20:54:06.429Z,7.80
2019-02-03T20:56:35.955Z,10.87
2019-02-03T20:59:05.547Z,10.07
2019-02-03T21:01:36.816Z,10.83
2019-02-03T21:04:06.893Z,9.90
2019-02-03T21:06:36.397Z,8.17
2019-02-03T21:09:08.636Z,7.53
2019-02-03T21:11:38.202Z,10.67
2019-02-03T21:14:07.795Z,6.60
2019-02-03T21:16:37.295Z,8.23
2019-02-03T21:19:06.802Z,11.40
2019-02-03T21:21:36.524Z,7.93
2019-02-03T21:24:06.213Z,11.33
2019-02-03T21:26:35.769Z,7.47
2019-02-03T21:29:05.347Z,16.13
2019-02-03T21:31:34.843Z,8.73
2019-02-03T21:34:04.551Z,10.30
2019-02-03T21:36:34.078Z,9.77
2019-02-03T21:39:04.659Z,7.33
2019-02-03T21:41:35.988Z,19.07
2019-02-03T21:44:05.802Z,8.70
2019-02-03T21:46:35.351Z,9.20
2019-02-03T21:49:05.047Z,7.87
2019-02-03T21:51:34.862Z,7.87
2019-02-03T21:54:04.723Z,8.17
2019-02-03T21:56:34.261Z,7.53
2019-02-03T21:59:03.859Z,9.67
2019-02-03T22:01:33.751Z,7.90
2019-02-03T22:04:03.371Z,9.30
2019-02-03T22:06:32.992Z,10.07
2019-02-03T22:09:02.514Z,9.43
2019-02-03T22:11:32.553Z,7.07
2019-02-03T22:14:02.069Z,11.67
2019-02-03T22:16:31.602Z,7.00
2019-02-03T22:19:01.143Z,6.77
2019-02-03T22:21:30.651Z,6.97
2019-02-03T22:24:00.170Z,7.47
2019-02-03T22:26:29.802Z,7.03
2019-02-03T22:28:59.588Z,12.43
2019-02-03T22:31:29.093Z,9.07
2019-02-03T22:33:58.731Z,6.57
2019-02-03T22:36:28.483Z,6.30
2019-02-03T22:38:57.987Z,6.27
2019-02-03T22:41:27.544Z,12.27
2019-02-03T22:43:57.072Z,9.40
2019-02-03T22:46:26.585Z,7.50
2019-02-03T22:48:56.262Z,7.13
2019-02-03T22:51:25.774Z,8.37
2019-02-03T22:53:55.280Z,8.90
2019-02-03T22:56:25.200Z,6.50
2019-02-03T22:58:54.704Z,5.90
2019-02-03T23:01:25.140Z,9.20
2019-02-03T23:03:54.705Z,12.03
2019-02-03T23:06:24.718Z,8.27
2019-02-03T23:08:54.999Z,8.03
2019-02-03T23:11:24.687Z,13.43
2019-02-03T23:13:54.195Z,9.93
2019-02-03T23:16:23.703Z,8.60
2019-02-03T23:18:53.238Z,6.67
2019-02-03T23:21:22.744Z,5.50
2019-02-03T23:23:52.545Z,6.10
2019-02-03T23:26:22.061Z,7.20
2019-02-03T23:28:51.566Z,6.47
2019-02-03T23:31:21.075Z,6.43
2019-02-03T23:33:50.608Z,6.70
2019-02-03T23:36:20.109Z,8.33
2019-02-03T23:38:49.618Z,7.80
2019-02-03T23:41:19.176Z,8.37
2019-02-03T23:43:48.669Z,8.30
2019-02-03T23:46:29.119Z,6.43
2019-02-03T23:48:49.612Z,6.17
2019-02-03T23:51:19.410Z,9.03
2019-02-03T23:53:48.915Z,6.80
2019-02-03T23:56:18.503Z,6.27
2019-02-03T23:58:48.032Z,7.40
